createdAt,value
2019-01-16T00:00:01.716Z,95.20
2019-01-16T00:01:01.732Z,95.72
2019-01-16T00:02:01.712Z,95.62
2019-01-16T00:03:01.708Z,95.31
2019-01-16T00:04:01.675Z,95.46
2019-01-16T00:05:01.691Z,95.10
2019-01-16T00:06:01.659Z,95.00
2019-01-16T00:07:01.667Z,95.41
2019-01-16T00:08:01.657Z,95.20
2019-01-16T00:09:01.648Z,95.72
2019-01-16T00:10:01.612Z,95.46
2019-01-16T00:11:01.612Z,95.41
2019-01-16T00:12:01.598Z,95.00
2019-01-16T00:13:01.638Z,95.41
2019-01-16T00:14:01.563Z,95.25
2019-01-16T00:15:01.559Z,95.04
2019-01-16T00:16:01.594Z,94.89
2019-01-16T00:17:01.539Z,95.62
2019-01-16T00:18:01.580Z,95.31
2019-01-16T00:19:01.523Z,95.62
2019-01-16T00:20:01.524Z,95.10
2019-01-16T00:21:01.522Z,95.41
2019-01-16T00:22:01.482Z,95.51
2019-01-16T00:23:01.496Z,95.62
2019-01-16T00:24:01.461Z,95.10
2019-01-16T00:25:01.507Z,94.79
2019-01-16T00:26:01.448Z,95.20
2019-01-16T00:27:01.461Z,94.89
2019-01-16T00:28:01.434Z,94.79
2019-01-16T00:29:01.434Z,94.37
2019-01-16T00:30:01.400Z,94.06
2019-01-16T00:31:01.389Z,93.65
2019-01-16T00:32:01.379Z,94.17
2019-01-16T00:33:01.384Z,94.37
2019-01-16T00:34:01.405Z,94.73
2019-01-16T00:35:01.370Z,94.79
2019-01-16T00:36:01.340Z,94.89
2019-01-16T00:37:01.330Z,95.10
2019-01-16T00:38:01.336Z,95.10
2019-01-16T00:39:01.354Z,95.10
2019-01-16T00:40:01.299Z,95.41
2019-01-16T00:41:01.321Z,95.20
2019-01-16T00:42:01.288Z,95.20
2019-01-16T00:43:01.282Z,95.10
2019-01-16T00:44:01.275Z,94.73
2019-01-16T00:45:01.270Z,95.20
2019-01-16T00:46:01.280Z,95.41
2019-01-16T00:47:01.239Z,94.68
2019-01-16T00:48:01.221Z,94.89
2019-01-16T00:49:01.233Z,95.00
2019-01-16T00:50:01.205Z,94.89
2019-01-16T00:51:01.225Z,95.00
2019-01-16T00:52:01.178Z,94.48
2019-01-16T00:53:01.157Z,93.96
2019-01-16T00:54:01.150Z,93.54
2019-01-16T00:55:01.153Z,93.54
2019-01-16T00:56:01.164Z,93.44
2019-01-16T00:57:01.122Z,93.44
2019-01-16T00:58:01.114Z,93.75
2019-01-16T00:59:01.193Z,93.29
2019-01-16T01:00:01.144Z,93.33
2019-01-16T01:01:01.587Z,92.68
2019-01-16T01:02:01.074Z,92.68
2019-01-16T01:03:01.086Z,93.08
2019-01-16T01:04:01.050Z,93.19
2019-01-16T01:05:01.034Z,93.08
2019-01-16T01:06:01.063Z,93.08
2019-01-16T01:07:01.065Z,93.29
2019-01-16T01:08:01.032Z,94.37
2019-01-16T01:09:01.006Z,93.91
2019-01-16T01:10:00.983Z,94.17
2019-01-16T01:11:00.996Z,94.27
2019-01-16T01:12:00.960Z,95.26
2019-01-16T01:13:01.002Z,94.64
2019-01-16T01:14:00.967Z,94.06
2019-01-16T01:15:00.932Z,94.33
2019-01-16T01:16:00.963Z,95.00
2019-01-16T01:17:00.911Z,94.68
2019-01-16T01:18:00.923Z,95.00
2019-01-16T01:19:00.890Z,93.65
2019-01-16T01:20:00.919Z,94.68
2019-01-16T01:21:00.865Z,95.31
2019-01-16T01:22:00.868Z,94.58
2019-01-16T01:23:00.873Z,94.89
2019-01-16T01:24:00.839Z,94.37
2019-01-16T01:25:00.896Z,95.00
2019-01-16T01:26:00.836Z,94.58
2019-01-16T01:27:00.833Z,94.48
2019-01-16T01:28:00.814Z,93.65
2019-01-16T01:29:00.796Z,93.85
2019-01-16T01:30:00.811Z,94.02
2019-01-16T01:31:00.794Z,93.50
2019-01-16T01:32:00.757Z,93.29
2019-01-16T01:33:00.743Z,93.29
2019-01-16T01:34:00.770Z,93.81
2019-01-16T01:35:00.745Z,93.29
2019-01-16T01:36:00.709Z,94.33
2019-01-16T01:37:00.714Z,93.91
2019-01-16T01:38:00.708Z,94.02
2019-01-16T01:39:00.734Z,93.81
2019-01-16T01:40:00.683Z,94.33
2019-01-16T01:41:00.699Z,94.68
2019-01-16T01:42:00.653Z,95.16
2019-01-16T01:43:00.638Z,94.85
2019-01-16T01:44:00.668Z,95.37
2019-01-16T01:45:00.633Z,94.74
2019-01-16T01:46:00.617Z,95.51
2019-01-16T01:47:00.626Z,95.06
2019-01-16T01:48:00.586Z,95.26
2019-01-16T01:49:00.601Z,96.09
2019-01-16T01:50:00.679Z,96.30
2019-01-16T01:51:00.553Z,96.03
2019-01-16T01:52:00.548Z,96.03
2019-01-16T01:53:00.602Z,96.45
2019-01-16T01:54:00.532Z,96.66
2019-01-16T01:55:00.538Z,96.55
2019-01-16T01:56:00.522Z,96.86
2019-01-16T01:57:00.493Z,96.34
2019-01-16T01:58:00.519Z,96.66
2019-01-16T01:59:00.473Z,96.41
2019-01-16T02:00:00.467Z,96.86
2019-01-16T02:01:00.498Z,96.86
2019-01-16T02:02:00.447Z,96.66
2019-01-16T02:03:00.493Z,96.45
2019-01-16T02:04:00.424Z,96.66
2019-01-16T02:05:00.409Z,96.76
2019-01-16T02:06:00.426Z,96.34
2019-01-16T02:07:00.430Z,97.07
2019-01-16T02:08:00.384Z,96.55
2019-01-16T02:09:00.388Z,96.34
2019-01-16T02:10:00.385Z,97.38
2019-01-16T02:11:00.351Z,97.38
2019-01-16T02:12:00.379Z,97.38
2019-01-16T02:13:00.322Z,97.17
2019-01-16T02:14:00.329Z,97.17
2019-01-16T02:15:00.348Z,96.97
2019-01-16T02:16:00.327Z,97.28
2019-01-16T02:17:00.307Z,97.28
2019-01-16T02:18:00.291Z,96.86
2019-01-16T02:19:00.294Z,97.80
2019-01-16T02:20:00.254Z,97.28
2019-01-16T02:21:00.270Z,97.38
2019-01-16T02:22:00.263Z,97.49
2019-01-16T02:23:00.219Z,97.49
2019-01-16T02:24:00.246Z,97.28
2019-01-16T02:25:00.202Z,97.33
2019-01-16T02:26:00.205Z,97.38
2019-01-16T02:27:00.175Z,97.38
2019-01-16T02:28:00.184Z,97.38
2019-01-16T02:29:00.162Z,97.64
2019-01-16T02:30:00.193Z,97.49
2019-01-16T02:31:00.166Z,97.49
2019-01-16T02:32:00.138Z,97.53
2019-01-16T02:33:00.157Z,97.69
2019-01-16T02:34:00.163Z,97.80
2019-01-16T02:35:00.152Z,97.53
2019-01-16T02:36:00.097Z,97.49
2019-01-16T02:37:00.074Z,97.69
2019-01-16T02:38:00.063Z,96.97
2019-01-16T02:39:00.092Z,97.49
2019-01-16T02:40:00.061Z,97.59
2019-01-16T02:41:00.038Z,97.28
2019-01-16T02:42:00.028Z,97.38
2019-01-16T02:43:00.024Z,97.49
2019-01-16T02:44:00.029Z,97.80
2019-01-16T02:44:59.997Z,98.00
2019-01-16T02:46:00.014Z,98.42
2019-01-16T02:47:00.020Z,98.32
2019-01-16T02:47:59.994Z,98.52
2019-01-16T02:48:59.967Z,98.42
2019-01-16T02:49:59.956Z,98.42
2019-01-16T02:50:59.949Z,98.32
2019-01-16T02:51:59.921Z,98.52
2019-01-16T02:52:59.943Z,97.90
2019-01-16T02:53:59.897Z,98.52
2019-01-16T02:54:59.915Z,98.26
2019-01-16T02:55:59.910Z,97.59
2019-01-16T02:56:59.881Z,98.42
2019-01-16T02:57:59.860Z,98.42
2019-01-16T02:58:59.854Z,98.32
2019-01-16T02:59:59.863Z,98.32
2019-01-16T03:00:59.842Z,98.11
2019-01-16T03:01:59.820Z,98.42
2019-01-16T03:02:59.808Z,98.52
2019-01-16T03:03:59.814Z,98.21
2019-01-16T03:04:59.838Z,98.52
2019-01-16T03:05:59.781Z,98.00
2019-01-16T03:06:59.789Z,97.49
2019-01-16T03:07:59.752Z,97.90
2019-01-16T03:08:59.748Z,97.49
2019-01-16T03:09:59.766Z,97.38
2019-01-16T03:10:59.722Z,98.52
2019-01-16T03:11:59.743Z,98.21
2019-01-16T03:12:59.717Z,98.11
2019-01-16T03:13:59.707Z,98.21
2019-01-16T03:14:59.717Z,98.52
2019-01-16T03:15:59.693Z,98.63
2019-01-16T03:16:59.691Z,97.69
2019-01-16T03:17:59.654Z,98.26
2019-01-16T03:19:04.536Z,98.42
2019-01-16T03:20:00.639Z,98.83
2019-01-16T03:20:59.633Z,98.52
2019-01-16T03:21:59.648Z,98.73
2019-01-16T03:22:59.611Z,98.63
2019-01-16T03:23:59.665Z,98.52
2019-01-16T03:24:59.578Z,98.47
2019-01-16T03:25:59.589Z,98.32
2019-01-16T03:26:59.560Z,98.83
2019-01-16T03:27:59.585Z,98.94
2019-01-16T03:28:59.585Z,98.94
2019-01-16T03:29:59.573Z,98.73
2019-01-16T03:30:59.533Z,99.09
2019-01-16T03:31:59.529Z,98.94
2019-01-16T03:32:59.498Z,99.25
2019-01-16T03:33:59.514Z,99.19
2019-01-16T03:34:59.510Z,99.25
2019-01-16T03:35:59.486Z,98.99
2019-01-16T03:36:59.456Z,98.73
2019-01-16T03:37:59.488Z,98.83
2019-01-16T03:38:59.439Z,98.78
2019-01-16T03:39:59.432Z,99.09
2019-01-16T03:40:59.435Z,99.19
2019-01-16T03:41:59.419Z,98.88
2019-01-16T03:42:59.436Z,98.88
2019-01-16T03:43:59.388Z,98.52
2019-01-16T03:44:59.369Z,98.99
2019-01-16T03:45:59.404Z,98.99
2019-01-16T03:46:59.386Z,99.15
2019-01-16T03:47:59.345Z,99.09
2019-01-16T03:48:59.358Z,98.99
2019-01-16T03:49:59.392Z,98.57
2019-01-16T03:50:59.339Z,98.88
2019-01-16T03:51:59.298Z,98.99
2019-01-16T03:52:59.297Z,98.57
2019-01-16T03:53:59.285Z,98.88
2019-01-16T03:54:59.289Z,98.36
2019-01-16T03:55:59.302Z,98.36
2019-01-16T03:56:59.267Z,98.36
2019-01-16T03:57:59.275Z,98.68
2019-01-16T03:58:59.259Z,98.99
2019-01-16T03:59:59.236Z,98.88
2019-01-16T04:00:59.236Z,98.36
2019-01-16T04:01:59.204Z,98.68
2019-01-16T04:02:59.187Z,98.83
2019-01-16T04:03:59.186Z,98.47
2019-01-16T04:04:59.209Z,98.42
2019-01-16T04:05:59.182Z,98.36
2019-01-16T04:06:59.160Z,98.47
2019-01-16T04:07:59.179Z,98.11
2019-01-16T04:08:59.123Z,98.16
2019-01-16T04:09:59.116Z,98.26
2019-01-16T04:10:59.108Z,98.32
2019-01-16T04:11:59.115Z,97.90
2019-01-16T04:12:59.105Z,97.49
2019-01-16T04:13:59.111Z,97.64
2019-01-16T04:14:59.060Z,97.28
2019-01-16T04:15:59.069Z,96.97
2019-01-16T04:16:59.071Z,97.69
2019-01-16T04:17:59.054Z,97.07
2019-01-16T04:18:59.050Z,97.28
2019-01-16T04:19:59.020Z,97.07
2019-01-16T04:20:59.011Z,97.07
2019-01-16T04:21:59.003Z,97.17
2019-01-16T04:22:58.976Z,97.38
2019-01-16T04:23:58.998Z,97.17
2019-01-16T04:24:58.960Z,97.17
2019-01-16T04:25:58.974Z,96.86
2019-01-16T04:26:58.951Z,96.60
2019-01-16T04:27:58.929Z,97.07
2019-01-16T04:28:58.937Z,96.19
2019-01-16T04:29:58.907Z,95.93
2019-01-16T04:30:58.901Z,96.14
2019-01-16T04:31:58.902Z,96.39
2019-01-16T04:32:58.881Z,95.98
2019-01-16T04:33:58.866Z,95.93
2019-01-16T04:34:58.886Z,95.98
2019-01-16T04:35:58.843Z,96.34
2019-01-16T04:36:58.879Z,96.50
2019-01-16T04:37:58.826Z,95.41
2019-01-16T04:38:58.835Z,95.41
2019-01-16T04:39:58.803Z,95.20
2019-01-16T04:40:58.849Z,95.25
2019-01-16T04:41:58.809Z,95.51
2019-01-16T04:42:58.775Z,95.41
2019-01-16T04:43:58.773Z,95.41
2019-01-16T04:44:58.752Z,95.10
2019-01-16T04:45:58.777Z,95.10
2019-01-16T04:46:58.734Z,95.20
2019-01-16T04:47:58.729Z,94.89
2019-01-16T04:48:58.716Z,95.00
2019-01-16T04:49:58.732Z,95.00
2019-01-16T04:50:58.701Z,95.20
2019-01-16T04:51:58.710Z,95.04
2019-01-16T04:52:58.687Z,94.89
2019-01-16T04:53:58.662Z,94.42
2019-01-16T04:54:58.648Z,94.63
2019-01-16T04:55:58.675Z,94.06
2019-01-16T04:56:58.634Z,94.63
2019-01-16T04:57:58.649Z,94.48
2019-01-16T04:58:58.634Z,94.32
2019-01-16T04:59:58.614Z,94.32
2019-01-16T05:00:58.582Z,94.37
2019-01-16T05:01:58.577Z,94.37
2019-01-16T05:02:58.593Z,93.85
2019-01-16T05:03:58.554Z,93.96
2019-01-16T05:04:58.541Z,93.96
2019-01-16T05:05:58.532Z,93.54
2019-01-16T05:06:58.540Z,93.44
2019-01-16T05:07:58.559Z,94.17
2019-01-16T05:08:58.498Z,93.75
2019-01-16T05:09:58.528Z,93.44
2019-01-16T05:10:58.487Z,93.85
2019-01-16T05:11:58.480Z,93.54
2019-01-16T05:12:58.455Z,93.44
2019-01-16T05:13:58.489Z,93.80
2019-01-16T05:14:58.434Z,93.54
2019-01-16T05:15:58.424Z,93.75
2019-01-16T05:16:58.408Z,93.65
2019-01-16T05:17:58.434Z,94.27
2019-01-16T05:18:58.431Z,93.54
2019-01-16T05:19:58.394Z,93.33
2019-01-16T05:20:58.400Z,93.54
2019-01-16T05:21:58.369Z,93.65
2019-01-16T05:22:58.349Z,93.70
2019-01-16T05:23:58.356Z,93.23
2019-01-16T05:24:58.334Z,93.33
2019-01-16T05:25:58.316Z,93.13
2019-01-16T05:26:58.340Z,93.54
2019-01-16T05:27:58.314Z,92.61
2019-01-16T05:28:58.319Z,93.44
2019-01-16T05:29:58.268Z,93.33
2019-01-16T05:30:58.281Z,93.18
2019-01-16T05:31:58.274Z,93.13
2019-01-16T05:32:58.247Z,93.13
2019-01-16T05:33:58.237Z,92.41
2019-01-16T05:34:58.320Z,92.10
2019-01-16T05:35:58.207Z,92.10
2019-01-16T05:36:58.200Z,91.93
2019-01-16T05:37:58.190Z,92.72
2019-01-16T05:38:58.191Z,93.23
2019-01-16T05:39:58.200Z,92.51
2019-01-16T05:40:58.149Z,92.55
2019-01-16T05:41:58.165Z,93.13
2019-01-16T05:42:58.144Z,93.23
2019-01-16T05:43:58.146Z,92.20
2019-01-16T05:44:58.134Z,92.30
2019-01-16T05:45:58.122Z,92.30
2019-01-16T05:46:58.096Z,92.61
2019-01-16T05:47:58.079Z,92.51
2019-01-16T05:48:58.101Z,91.78
2019-01-16T05:49:58.058Z,91.78
2019-01-16T05:50:58.059Z,91.47
2019-01-16T05:51:58.035Z,91.27
2019-01-16T05:52:58.126Z,91.06
2019-01-16T05:53:58.055Z,91.37
2019-01-16T05:54:58.037Z,91.58
2019-01-16T05:55:58.003Z,91.58
2019-01-16T05:56:57.990Z,91.16
2019-01-16T05:57:58.011Z,91.37
2019-01-16T05:58:57.962Z,91.47
2019-01-16T05:59:57.950Z,91.99
2019-01-16T06:00:57.967Z,91.93
2019-01-16T06:01:58.035Z,91.27
2019-01-16T06:02:57.940Z,91.27
2019-01-16T06:03:57.901Z,91.47
2019-01-16T06:04:57.890Z,91.27
2019-01-16T06:05:57.898Z,91.27
2019-01-16T06:06:57.927Z,90.95
2019-01-16T06:07:57.925Z,91.16
2019-01-16T06:08:57.879Z,90.23
2019-01-16T06:09:57.836Z,89.61
2019-01-16T06:10:57.824Z,89.81
2019-01-16T06:11:57.825Z,90.12
2019-01-16T06:12:57.801Z,89.40
2019-01-16T06:13:57.848Z,89.15
2019-01-16T06:14:57.793Z,89.40
2019-01-16T06:15:57.768Z,88.32
2019-01-16T06:16:57.758Z,88.98
2019-01-16T06:17:57.748Z,87.90
2019-01-16T06:19:00.611Z,88.94
2019-01-16T06:19:57.761Z,88.53
2019-01-16T06:20:57.735Z,88.73
2019-01-16T06:21:57.732Z,89.29
2019-01-16T06:22:57.690Z,89.40
2019-01-16T06:23:57.725Z,89.15
2019-01-16T06:24:57.675Z,87.80
2019-01-16T06:25:57.694Z,87.80
2019-01-16T06:26:57.649Z,88.11
2019-01-16T06:27:57.648Z,87.80
2019-01-16T06:28:57.659Z,88.01
2019-01-16T06:29:57.620Z,87.90
2019-01-16T06:30:57.647Z,87.49
2019-01-16T06:31:57.609Z,86.97
2019-01-16T06:32:57.599Z,86.66
2019-01-16T06:33:57.582Z,87.59
2019-01-16T06:34:57.563Z,86.97
2019-01-16T06:35:57.598Z,86.87
2019-01-16T06:36:57.542Z,87.59
2019-01-16T06:37:57.547Z,86.76
2019-01-16T06:38:57.516Z,86.10
2019-01-16T06:39:57.574Z,85.94
2019-01-16T06:40:57.530Z,85.89
2019-01-16T06:41:57.511Z,86.83
2019-01-16T06:42:57.540Z,86.76
2019-01-16T06:43:57.503Z,87.04
2019-01-16T06:44:57.461Z,86.87
2019-01-16T06:45:57.441Z,86.55
2019-01-16T06:46:57.440Z,86.87
2019-01-16T06:47:57.427Z,87.90
2019-01-16T06:48:58.700Z,87.90
2019-01-16T06:50:01.650Z,88.01
2019-01-16T06:50:57.407Z,88.98
2019-01-16T06:51:57.388Z,89.09
2019-01-16T06:52:57.374Z,89.50
2019-01-16T06:53:57.351Z,89.50
2019-01-16T06:54:57.374Z,88.98
2019-01-16T06:55:57.361Z,89.29
2019-01-16T06:56:57.334Z,89.19
2019-01-16T06:57:57.307Z,87.49
2019-01-16T06:58:57.294Z,87.49
2019-01-16T06:59:57.341Z,86.97
2019-01-16T07:00:57.276Z,87.07
2019-01-16T07:01:57.308Z,88.15
2019-01-16T07:02:57.272Z,87.90
2019-01-16T07:03:57.348Z,87.38
2019-01-16T07:04:57.251Z,87.28
2019-01-16T07:05:57.262Z,87.80
2019-01-16T07:06:57.235Z,87.43
2019-01-16T07:07:57.271Z,88.05
2019-01-16T07:08:57.259Z,87.53
2019-01-16T07:09:57.200Z,87.63
2019-01-16T07:10:57.179Z,87.49
2019-01-16T07:11:57.209Z,87.84
2019-01-16T07:12:57.145Z,87.63
2019-01-16T07:13:57.159Z,86.76
2019-01-16T07:14:57.156Z,87.43
2019-01-16T07:15:57.107Z,87.01
2019-01-16T07:16:57.094Z,87.53
2019-01-16T07:17:57.102Z,87.12
2019-01-16T07:18:57.104Z,87.95
2019-01-16T07:19:57.155Z,87.84
2019-01-16T07:20:57.061Z,87.84
2019-01-16T07:21:57.159Z,87.12
2019-01-16T07:22:57.049Z,86.91
2019-01-16T07:23:57.044Z,87.22
2019-01-16T07:24:57.028Z,87.63
2019-01-16T07:25:57.005Z,86.91
2019-01-16T07:26:57.013Z,86.08
2019-01-16T07:27:57.037Z,84.94
2019-01-16T07:28:56.972Z,85.66
2019-01-16T07:29:57.021Z,86.18
2019-01-16T07:30:56.996Z,86.91
2019-01-16T07:31:56.966Z,86.60
2019-01-16T07:32:57.018Z,84.52
2019-01-16T07:33:56.916Z,84.42
2019-01-16T07:34:56.989Z,85.35
2019-01-16T07:35:56.909Z,86.18
2019-01-16T07:36:56.898Z,85.66
2019-01-16T07:37:56.905Z,85.77
2019-01-16T07:38:57.094Z,85.77
2019-01-16T07:39:56.876Z,85.97
2019-01-16T07:40:56.866Z,85.25
2019-01-16T07:41:56.819Z,85.35
2019-01-16T07:42:56.936Z,85.14
2019-01-16T07:43:56.810Z,86.08
2019-01-16T07:44:56.885Z,86.18
2019-01-16T07:45:57.672Z,86.08
2019-01-16T07:46:56.802Z,85.46
2019-01-16T07:47:56.757Z,86.39
2019-01-16T07:48:56.762Z,87.53
2019-01-16T07:49:56.793Z,87.53
2019-01-16T07:50:56.741Z,87.53
2019-01-16T07:51:56.708Z,86.91
2019-01-16T07:52:56.710Z,87.01
2019-01-16T07:53:56.692Z,86.08
2019-01-16T07:54:56.724Z,87.12
2019-01-16T07:55:56.690Z,87.53
2019-01-16T07:56:56.683Z,87.22
2019-01-16T07:57:56.642Z,87.22
2019-01-16T07:58:56.690Z,87.22
2019-01-16T07:59:57.685Z,87.84
2019-01-16T08:00:56.620Z,87.43
2019-01-16T08:01:56.634Z,87.22
2019-01-16T08:02:56.595Z,86.91
2019-01-16T08:03:56.579Z,87.16
2019-01-16T08:04:56.593Z,86.95
2019-01-16T08:05:56.597Z,86.91
2019-01-16T08:06:56.543Z,86.39
2019-01-16T08:07:56.530Z,86.91
2019-01-16T08:08:56.526Z,86.29
2019-01-16T08:09:56.554Z,85.14
2019-01-16T08:10:56.520Z,85.87
2019-01-16T08:11:56.526Z,85.35
2019-01-16T08:12:56.481Z,85.35
2019-01-16T08:13:56.466Z,85.71
2019-01-16T08:14:56.561Z,85.66
2019-01-16T08:15:56.445Z,86.08
2019-01-16T08:16:56.479Z,85.56
2019-01-16T08:17:56.425Z,85.04
2019-01-16T08:18:56.416Z,86.08
2019-01-16T08:19:56.450Z,85.56
2019-01-16T08:20:56.412Z,85.87
2019-01-16T08:21:56.396Z,86.02
2019-01-16T08:22:56.394Z,84.63
2019-01-16T08:23:56.375Z,84.67
2019-01-16T08:24:56.392Z,85.35
2019-01-16T08:25:56.370Z,84.63
2019-01-16T08:26:56.339Z,84.73
2019-01-16T08:27:56.340Z,85.60
2019-01-16T08:28:56.326Z,84.42
2019-01-16T08:29:56.372Z,85.25
2019-01-16T08:30:56.295Z,86.22
2019-01-16T08:31:56.276Z,85.35
2019-01-16T08:32:56.262Z,85.66
2019-01-16T08:33:56.264Z,85.35
2019-01-16T08:34:56.264Z,84.67
2019-01-16T08:35:56.231Z,84.94
2019-01-16T08:36:56.227Z,84.56
2019-01-16T08:37:56.235Z,84.77
2019-01-16T08:38:56.222Z,84.88
2019-01-16T08:39:56.199Z,83.94
2019-01-16T08:40:56.181Z,84.56
2019-01-16T08:41:56.168Z,84.25
2019-01-16T08:42:56.242Z,83.80
2019-01-16T08:43:56.204Z,84.36
2019-01-16T08:44:56.151Z,83.69
2019-01-16T08:45:56.117Z,83.84
2019-01-16T08:46:56.108Z,84.31
2019-01-16T08:47:56.107Z,84.21
2019-01-16T08:48:56.280Z,83.59
2019-01-16T08:49:56.085Z,84.63
2019-01-16T08:50:56.077Z,84.21
2019-01-16T08:51:56.052Z,84.73
2019-01-16T08:52:56.036Z,84.21
2019-01-16T08:53:56.055Z,84.15
2019-01-16T08:54:56.045Z,84.98
2019-01-16T08:55:56.028Z,85.08
2019-01-16T08:56:56.003Z,85.60
2019-01-16T08:57:56.007Z,85.19
2019-01-16T08:58:56.001Z,84.15
2019-01-16T08:59:55.960Z,84.63
2019-01-16T09:00:56.001Z,85.35
2019-01-16T09:01:55.970Z,84.42
2019-01-16T09:02:55.952Z,84.11
2019-01-16T09:03:55.917Z,84.21
2019-01-16T09:04:55.935Z,84.67
2019-01-16T09:05:55.916Z,85.66
2019-01-16T09:06:55.889Z,85.50
2019-01-16T09:07:55.905Z,85.35
2019-01-16T09:08:55.876Z,85.04
2019-01-16T09:09:55.902Z,85.81
2019-01-16T09:10:55.890Z,85.39
2019-01-16T09:11:55.840Z,85.81
2019-01-16T09:12:55.819Z,84.25
2019-01-16T09:13:55.810Z,85.19
2019-01-16T09:14:55.816Z,84.77
2019-01-16T09:15:55.842Z,85.08
2019-01-16T09:16:55.792Z,85.19
2019-01-16T09:17:55.780Z,85.19
2019-01-16T09:18:55.753Z,86.12
2019-01-16T09:19:55.751Z,86.02
2019-01-16T09:20:55.768Z,85.08
2019-01-16T09:21:55.720Z,84.77
2019-01-16T09:22:55.726Z,85.39
2019-01-16T09:23:55.695Z,86.54
2019-01-16T09:24:55.694Z,86.22
2019-01-16T09:25:55.791Z,84.98
2019-01-16T09:26:55.759Z,84.56
2019-01-16T09:27:55.651Z,85.60
2019-01-16T09:28:55.650Z,85.46
2019-01-16T09:29:55.650Z,87.01
2019-01-16T09:30:55.722Z,84.63
2019-01-16T09:31:55.608Z,85.19
2019-01-16T09:32:55.632Z,84.63
2019-01-16T09:33:55.586Z,85.35
2019-01-16T09:34:55.587Z,84.67
2019-01-16T09:35:55.617Z,85.46
2019-01-16T09:36:55.582Z,86.39
2019-01-16T09:37:55.542Z,85.35
2019-01-16T09:38:55.551Z,85.25
2019-01-16T09:39:55.525Z,84.77
2019-01-16T09:40:55.536Z,84.77
2019-01-16T09:41:55.541Z,85.39
2019-01-16T09:42:55.514Z,85.19
2019-01-16T09:43:55.515Z,85.39
2019-01-16T09:44:55.470Z,85.08
2019-01-16T09:45:55.473Z,84.98
2019-01-16T09:46:55.454Z,85.91
2019-01-16T09:47:55.449Z,84.88
2019-01-16T09:48:55.521Z,85.39
2019-01-16T09:49:55.423Z,85.08
2019-01-16T09:50:55.417Z,85.29
2019-01-16T09:51:55.406Z,85.81
2019-01-16T09:52:55.434Z,85.35
2019-01-16T09:53:55.426Z,84.88
2019-01-16T09:54:55.389Z,85.39
2019-01-16T09:55:55.342Z,84.67
2019-01-16T09:56:55.368Z,85.46
2019-01-16T09:57:55.325Z,85.35
2019-01-16T09:58:55.367Z,85.25
2019-01-16T09:59:55.359Z,85.60
2019-01-16T10:00:55.297Z,86.22
2019-01-16T10:01:55.288Z,87.43
2019-01-16T10:02:55.268Z,87.74
2019-01-16T10:03:55.281Z,87.05
2019-01-16T10:04:56.807Z,84.11
2019-01-16T10:05:55.241Z,83.80
2019-01-16T10:06:55.225Z,84.31
2019-01-16T10:07:55.280Z,84.31
2019-01-16T10:08:55.203Z,83.80
2019-01-16T10:09:55.235Z,84.83
2019-01-16T10:10:55.203Z,84.31
2019-01-16T10:11:55.170Z,84.83
2019-01-16T10:12:55.160Z,82.97
2019-01-16T10:13:55.176Z,83.38
2019-01-16T10:14:55.163Z,83.80
2019-01-16T10:15:55.142Z,84.31
2019-01-16T10:16:55.125Z,83.90
2019-01-16T10:17:55.108Z,84.31
2019-01-16T10:18:55.125Z,82.31
2019-01-16T10:19:55.105Z,81.89
2019-01-16T10:20:55.811Z,82.20
2019-01-16T10:21:55.071Z,81.89
2019-01-16T10:22:55.067Z,82.10
2019-01-16T10:23:55.136Z,82.72
2019-01-16T10:24:55.047Z,82.41
2019-01-16T10:25:55.025Z,83.14
2019-01-16T10:26:55.097Z,82.72
2019-01-16T10:27:55.002Z,82.20
2019-01-16T10:28:54.992Z,81.93
2019-01-16T10:29:54.989Z,82.41
2019-01-16T10:30:54.985Z,81.99
2019-01-16T10:31:55.005Z,82.62
2019-01-16T10:32:54.976Z,81.48
2019-01-16T10:33:54.939Z,82.10
2019-01-16T10:34:54.934Z,83.55
2019-01-16T10:35:54.918Z,81.16
2019-01-16T10:36:54.926Z,81.89
2019-01-16T10:37:54.939Z,82.62
2019-01-16T10:38:54.896Z,82.51
2019-01-16T10:39:54.885Z,81.20
2019-01-16T10:40:54.939Z,81.20
2019-01-16T10:41:54.855Z,81.30
2019-01-16T10:42:54.866Z,82.03
2019-01-16T10:43:54.860Z,82.76
2019-01-16T10:44:54.824Z,82.14
2019-01-16T10:45:54.842Z,83.28
2019-01-16T10:46:54.807Z,80.68
2019-01-16T10:47:54.798Z,81.72
2019-01-16T10:48:54.798Z,83.07
2019-01-16T10:49:54.811Z,82.55
2019-01-16T10:50:54.768Z,81.93
2019-01-16T10:51:54.762Z,81.93
2019-01-16T10:52:54.743Z,81.72
2019-01-16T10:53:54.732Z,82.65
2019-01-16T10:54:54.763Z,82.86
2019-01-16T10:55:54.745Z,83.59
2019-01-16T10:56:54.760Z,82.76
2019-01-16T10:57:54.697Z,82.97
2019-01-16T10:58:54.681Z,83.28
2019-01-16T10:59:54.702Z,83.28
2019-01-16T11:00:54.686Z,83.48
2019-01-16T11:01:54.700Z,82.80
2019-01-16T11:02:54.652Z,82.65
2019-01-16T11:03:54.647Z,83.90
2019-01-16T11:04:54.618Z,84.00
2019-01-16T11:05:54.662Z,83.80
2019-01-16T11:06:54.600Z,82.76
2019-01-16T11:07:54.587Z,83.90
2019-01-16T11:08:54.584Z,83.80
2019-01-16T11:09:54.583Z,83.28
2019-01-16T11:10:54.588Z,81.41
2019-01-16T11:11:54.576Z,82.24
2019-01-16T11:12:54.539Z,81.93
2019-01-16T11:13:54.558Z,82.65
2019-01-16T11:14:54.538Z,82.39
2019-01-16T11:15:54.507Z,81.10
2019-01-16T11:16:56.855Z,82.86
2019-01-16T11:17:54.484Z,83.17
2019-01-16T11:18:54.485Z,82.55
2019-01-16T11:19:54.465Z,82.76
2019-01-16T11:20:54.487Z,82.76
2019-01-16T11:21:54.482Z,83.07
2019-01-16T11:22:54.511Z,81.62
2019-01-16T11:23:54.420Z,81.62
2019-01-16T11:24:54.446Z,82.80
2019-01-16T11:25:54.402Z,83.80
2019-01-16T11:26:54.406Z,82.55
2019-01-16T11:27:54.446Z,82.86
2019-01-16T11:28:54.372Z,81.72
2019-01-16T11:29:54.359Z,81.30
2019-01-16T11:30:54.404Z,82.24
2019-01-16T11:31:54.355Z,82.45
2019-01-16T11:32:54.352Z,83.22
2019-01-16T11:33:54.327Z,82.86
2019-01-16T11:34:54.310Z,81.93
2019-01-16T11:35:54.314Z,81.51
2019-01-16T11:36:54.292Z,82.45
2019-01-16T11:37:54.411Z,81.72
2019-01-16T11:38:54.296Z,81.93
2019-01-16T11:39:54.259Z,82.45
2019-01-16T11:40:54.246Z,81.82
2019-01-16T11:41:54.237Z,82.65
2019-01-16T11:42:54.257Z,81.51
2019-01-16T11:43:54.236Z,81.82
2019-01-16T11:44:54.209Z,81.37
2019-01-16T11:45:54.233Z,82.03
2019-01-16T11:46:54.221Z,81.06
2019-01-16T11:47:54.200Z,81.72
2019-01-16T11:48:54.165Z,81.89
2019-01-16T11:49:54.167Z,81.10
2019-01-16T11:50:54.157Z,80.79
2019-01-16T11:51:54.134Z,81.82
2019-01-16T11:52:54.157Z,81.51
2019-01-16T11:53:54.155Z,81.62
2019-01-16T11:54:54.120Z,82.14
2019-01-16T11:55:54.103Z,82.65
2019-01-16T11:56:54.104Z,82.55
2019-01-16T11:57:54.069Z,83.48
2019-01-16T11:58:54.088Z,82.14
2019-01-16T11:59:54.056Z,82.82
2019-01-16T12:00:54.053Z,81.93
2019-01-16T12:01:54.029Z,82.41
2019-01-16T12:02:54.033Z,82.97
2019-01-16T12:03:54.042Z,83.03
2019-01-16T12:04:54.013Z,81.89
2019-01-16T12:05:54.011Z,82.72
2019-01-16T12:06:53.989Z,81.89
2019-01-16T12:07:53.998Z,80.44
2019-01-16T12:08:53.961Z,81.06
2019-01-16T12:09:53.967Z,81.89
2019-01-16T12:10:53.959Z,82.10
2019-01-16T12:11:53.926Z,81.27
2019-01-16T12:12:53.922Z,81.27
2019-01-16T12:13:53.918Z,81.68
2019-01-16T12:14:53.906Z,81.06
2019-01-16T12:15:53.922Z,81.27
2019-01-16T12:16:53.897Z,81.27
2019-01-16T12:17:53.863Z,81.68
2019-01-16T12:18:53.862Z,81.79
2019-01-16T12:19:53.858Z,81.99
2019-01-16T12:20:53.899Z,80.85
2019-01-16T12:21:53.819Z,81.27
2019-01-16T12:22:53.810Z,81.58
2019-01-16T12:23:53.794Z,80.54
2019-01-16T12:24:53.787Z,80.23
2019-01-16T12:25:53.824Z,80.13
2019-01-16T12:26:53.763Z,81.48
2019-01-16T12:27:53.756Z,80.13
2019-01-16T12:28:53.749Z,80.33
2019-01-16T12:29:53.735Z,80.85
2019-01-16T12:30:53.746Z,80.58
2019-01-16T12:31:53.712Z,80.23
2019-01-16T12:32:53.700Z,80.23
2019-01-16T12:33:53.693Z,80.27
2019-01-16T12:34:53.705Z,80.89
2019-01-16T12:35:53.736Z,81.41
2019-01-16T12:36:53.669Z,81.10
2019-01-16T12:37:53.649Z,80.27
2019-01-16T12:38:53.707Z,80.27
2019-01-16T12:39:53.635Z,80.37
2019-01-16T12:40:53.617Z,81.48
2019-01-16T12:41:59.533Z,81.37
2019-01-16T12:42:54.602Z,80.54
2019-01-16T12:43:53.601Z,80.85
2019-01-16T12:44:53.608Z,80.23
2019-01-16T12:45:53.567Z,80.23
2019-01-16T12:46:53.556Z,80.85
2019-01-16T12:47:53.543Z,80.13
2019-01-16T12:48:53.539Z,80.96
2019-01-16T12:49:53.555Z,81.68
2019-01-16T12:50:53.530Z,80.33
2019-01-16T12:51:53.513Z,80.23